Latest Coastal Weather Observations for Cape Willoughby

IDS60701

Issued at 4:41 pm CDT Tuesday 17 October 2017 (issued every 10 minutes, with the page automatically refreshed every 10 minutes)

About coastal observations | Map of coastal stations | Coastal observations for SA | Marine services | Other Formats
Station Details ID: 022803 Name: CAPE WILLOUGHBY Lat: -35.84 Lon: 138.13 Height: 55.0 m
Data from the previous 72 hours. | See also: Recent months at Cape Willoughby
Date/Time
CDT
Temp
°C
Wind Pressure Rain since
9am
mm
Weather Cloud Vis
km
Sea
Height
m
Swell
Dir  Spd
kts
Gust
kts
hPa Trend Height
m
Period
s
Dir
17/04:30pm 28.8 NNW 14 18 1014.2 - 0.0 - - - - - - -
17/04:00pm 28.5 NNW 14 17 1014.2 - 0.0 - - - - - - -
17/03:30pm 25.5 N 16 18 1014.2 - 0.0 - - - - - - -
17/03:00pm 25.3 N 16 18 1014.4 - 0.0 - - - - - - -
17/02:30pm 25.0 N 14 17 1014.6 - 0.0 - - - - - - -
17/02:00pm 25.5 N 16 18 1015.1 - 0.0 - - - - - - -
17/01:30pm 26.6 N 17 19 1015.2 - 0.0 - - - - - - -
17/01:00pm 25.6 N 20 21 1015.4 - 0.0 - - - - - - -
17/12:30pm 26.0 NNW 23 27 1015.4 - 0.0 - - - - - - -
17/12:00pm 25.4 NNW 18 22 1015.8 - 0.0 - - - - - - -
17/11:30am 23.5 N 20 23 1015.9 - 0.0 - - - - - - -
17/11:00am 23.3 N 19 26 1016.0 - 0.0 - - - - - - -
17/10:30am 23.6 N 20 24 1015.9 - 0.0 - - - - - - -
17/10:00am 22.7 N 20 23 1015.9 - 0.0 - - - - - - -
17/09:30am 22.4 N 20 22 1015.8 - 0.0 - - - - - - -
17/09:00am 22.6 N 20 23 1015.8 - 0.0 - - - - - - -
17/08:30am 22.3 N 17 21 1015.9 - 0.0 - - - - - - -
17/08:00am 21.9 N 18 21 1015.7 - 0.0 - - - - - - -
17/07:30am 21.0 N 16 20 1015.4 - 0.0 - - - - - - -
17/07:00am 20.2 N 17 20 1015.1 - 0.0 - - - - - - -
17/06:30am 20.4 NNW 18 23 1014.9 - 0.0 - - - - - - -
17/06:00am 20.1 NNW 17 19 1014.6 - 0.0 - - - - - - -
17/05:30am 20.7 NNW 18 21 1014.5 - 0.0 - - - - - - -
17/05:00am 20.7 N 18 23 1014.3 - 0.0 - - - - - - -
17/04:30am 21.1 N 20 24 1014.2 - 0.0 - - - - - - -
17/04:00am 20.9 N 14 18 1014.4 - 0.0 - - - - - - -
17/03:30am 20.3 N 7 13 1014.6 - 0.0 - - - - - - -
17/03:00am 17.5 NNE 6 9 1014.8 - 0.0 - - - - - - -
17/02:30am 17.3 NNE 4 7 1015.1 - 0.0 - - - - - - -
17/02:00am 17.3 N 4 8 1015.4 - 0.0 - - - - - - -
17/01:30am 17.7 NE 12 16 1015.8 - 0.0 - - - - - - -
17/01:00am 18.3 NE 14 17 1016.2 - 0.0 - - - - - - -
17/12:30am 18.6 NE 15 18 1016.8 - 0.0 - - - - - - -
17/12:00am 18.4 NE 12 15 1017.3 - 0.0 - - - - - - -
 
Date/Time
CDT
Temp
°C
Wind Pressure Rain since
9am
mm
Weather Cloud Vis
km
Sea
Height
m
Swell
Dir  Spd
kts
Gust
kts
hPa Trend Height
m
Period
s
Dir
16/11:30pm 19.3 NNE 9 13 1017.6 - 0.0 - - - - - - -
16/11:00pm 19.1 NNE 8 11 1017.7 - 0.0 - - - - - - -
16/10:30pm 18.9 NNE 6 9 1018.0 - 0.0 - - - - - - -
16/10:00pm 18.6 N 7 9 1017.8 - 0.0 - - - - - - -
16/09:30pm 19.8 N 3 5 1017.8 - 0.0 - - - - - - -
16/09:00pm 20.2 NE 5 7 1017.6 - 0.0 - - - - - - -
16/08:30pm 19.3 ENE 4 4 1017.4 - 0.0 - - - - - - -
16/08:00pm 18.9 E 3 5 1017.1 - 0.0 - - - - - - -
16/07:30pm 19.4 SE 3 5 1017.0 - 0.0 - - - - - - -
16/07:00pm 19.3 SE 2 4 1017.1 - 0.0 - - - - - - -
16/06:30pm 19.8 SE 5 8 1017.1 - 0.0 - - - - - - -
16/06:00pm 20.0 SE 4 7 1017.2 - 0.0 - - - - - - -
16/05:30pm 20.2 ESE 3 5 1017.3 - 0.0 - - - - - - -
16/05:00pm 20.9 ESE 6 7 1017.3 - 0.0 - - - - - - -
16/04:30pm 21.3 ESE 5 6 1017.4 - 0.0 - - - - - - -
16/04:00pm 20.4 E 4 5 1017.6 - 0.0 - - - - - - -
16/03:30pm 20.5 ENE 5 7 1017.9 - 0.0 - - - - - - -
16/03:00pm 20.0 NE 4 6 1018.3 - 0.0 - - - - - - -
16/02:30pm 19.5 NE 5 6 1018.6 - 0.0 - - - - - - -
16/02:00pm 18.8 NE 4 6 1019.0 - 0.0 - - - - - - -
16/01:30pm 18.2 ENE 4 5 1019.1 - 0.0 - - - - - - -
16/01:00pm 17.8 ENE 3 4 1019.3 - 0.0 - - - - - - -
16/12:30pm 17.7 ENE 3 5 1019.6 - 0.0 - - - - - - -
16/12:00pm 17.3 NE 4 6 1019.9 - 0.0 - - - - - - -
16/11:30am 16.9 NNE 5 6 1020.2 - 0.0 - - - - - - -
16/11:00am 16.6 NE 5 6 1020.5 - 0.0 - - - - - - -
16/10:30am 16.1 NE 5 6 1020.7 - 0.0 - - - - - - -
16/10:00am 15.1 NE 5 6 1021.0 - 0.0 - - - - - - -
16/09:30am 15.0 NE 4 5 1021.1 - 0.0 - - - - - - -
16/09:00am 14.4 NE 5 7 1021.1 - 0.2 - - - - - - -
16/08:30am 14.2 NE 6 8 1021.1 - 0.2 - - - - - - -
16/08:00am 14.3 ENE 6 8 1021.0 - 0.2 - - - - - - -
16/07:30am 14.4 ENE 7 9 1021.0 - 0.2 - - - - - - -
16/07:00am 14.5 E 7 9 1020.8 - 0.2 - - - - - - -
16/06:30am 14.4 E 7 11 1020.7 - 0.2 - - - - - - -
16/06:00am 14.3 E 6 7 1020.5 - 0.2 Rain - - - - - -
16/05:30am 14.2 E 5 7 1020.3 - 0.0 - - - - - - -
16/05:00am 14.2 ESE 5 7 1020.1 - 0.0 - - - - - - -
16/04:30am 14.2 E 5 6 1020.4 - 0.0 - - - - - - -
16/04:00am 14.3 E 6 7 1020.5 - 0.0 - - - - - - -
16/03:30am 14.2 E 6 7 1020.7 - 0.0 - - - - - - -
16/03:00am 14.2 E 6 7 1021.0 - 0.0 - - - - - - -
16/02:30am 14.2 E 5 6 1021.4 - 0.0 - - - - - - -
16/02:00am 14.4 E 6 7 1021.7 - 0.0 - - - - - - -
16/01:30am 14.2 E 7 8 1022.0 - 0.0 - - - - - - -
16/01:00am 14.0 ESE 6 7 1022.4 - 0.0 - - - - - - -
16/12:30am 14.1 ESE 7 9 1022.3 - 0.0 - - - - - - -
16/12:00am 14.2 ESE 6 8 1022.6 - 0.0 - - - - - - -
 
Date/Time
CDT
Temp
°C
Wind Pressure Rain since
9am
mm
Weather Cloud Vis
km
Sea
Height
m
Swell
Dir  Spd
kts
Gust
kts
hPa Trend Height
m
Period
s
Dir
15/11:30pm 14.0 SE 7 8 1022.7 - 0.0 - - - - - - -
15/11:00pm 13.9 SE 6 8 1022.9 - 0.0 - - - - - - -
15/10:30pm 13.9 SE 6 7 1022.9 - 0.0 - - - - - - -
15/10:00pm 13.9 ESE 6 6 1022.8 - 0.0 - - - - - - -
15/09:30pm 13.9 ESE 6 7 1022.5 - 0.0 - - - - - - -
15/09:00pm 13.7 ESE 5 6 1022.5 - 0.0 - - - - - - -
15/08:30pm 13.8 ESE 7 9 1022.2 - 0.0 - - - - - - -
15/08:00pm 13.8 ESE 7 9 1022.2 - 0.0 - - - - - - -
15/07:30pm 13.7 ESE 8 10 1022.2 - 0.0 - - - - - - -
15/07:00pm 13.8 SE 12 14 1021.9 - 0.0 - - - - - - -
15/06:30pm 14.1 SE 14 17 1022.0 - 0.0 - - - - - - -
15/06:00pm 14.3 SE 16 18 1021.9 - 0.0 - - - - - - -
15/05:30pm 14.4 SE 17 19 1022.0 - 0.0 - - - - - - -
15/05:00pm 14.8 SE 16 19 1022.1 - 0.0 - - - - - - -
15/04:30pm 15.0 SE 16 20 1022.2 - 0.0 - - - - - - -
15/04:00pm 15.0 SE 15 17 1022.4 - 0.0 - - - - - - -
15/03:30pm 15.4 SE 14 16 1022.9 - 0.0 - - - - - - -
15/03:00pm 15.5 SE 13 16 1023.2 - 0.0 - - - - - - -
15/02:30pm 16.0 SE 13 15 1023.4 - 0.0 - - - - - - -
15/02:00pm 16.1 SE 11 14 1023.7 - 0.0 - - - - - - -
15/01:30pm 15.8 SE 9 11 1023.9 - 0.0 - - - - - - -
15/01:00pm 15.8 ESE 8 10 1023.8 - 0.0 - - - - - - -
15/12:30pm 15.9 ESE 9 11 1024.0 - 0.0 - - - - - - -
15/12:00pm 15.8 E 9 12 1024.1 - 0.0 - - - - - - -
15/11:30am 15.3 E 10 12 1024.3 - 0.0 - - - - - - -
15/11:00am 14.6 ENE 12 15 1024.6 - 0.0 - - - - - - -
15/10:30am 14.8 E 13 16 1024.7 - 0.0 - - - - - - -
15/10:00am 14.5 E 12 15 1024.7 - 0.0 - - - - - - -
15/09:30am 14.7 E 11 15 1024.7 - 0.0 - - - - - - -
15/09:00am 14.8 E 11 14 1024.5 - 0.2 - - - - - - -
15/08:30am 14.4 ESE 12 15 1024.2 - 0.2 - - - - - - -
15/08:00am 13.7 ESE 12 15 1024.3 - 0.2 - - - - - - -
15/07:30am 13.5 E 11 13 1024.3 - 0.2 - - - - - - -
15/07:00am 13.1 ESE 10 15 1024.0 - 0.2 - - - - - - -
15/06:30am 13.2 ESE 11 15 1023.9 - 0.2 - - - - - - -
15/06:00am 13.2 ESE 11 14 1023.7 - 0.2 - - - - - - -
15/05:30am 13.4 ESE 12 16 1023.4 - 0.2 - - - - - - -
15/05:00am 13.4 ESE 12 15 1023.5 - 0.2 - - - - - - -
15/04:30am 13.2 E 14 22 1023.2 - 0.2 - - - - - - -
15/04:00am 13.3 ESE 11 17 1023.6 - 0.2 - - - - - - -
15/03:30am 13.1 ESE 10 14 1023.7 - 0.2 - - - - - - -
15/03:00am 13.1 ESE 11 14 1023.9 - 0.2 - - - - - - -
15/02:30am 13.1 ESE 10 13 1024.1 - 0.2 - - - - - - -
15/02:00am 13.3 ESE 11 13 1024.2 - 0.2 - - - - - - -
15/01:30am 13.2 ESE 12 15 1024.6 - 0.2 - - - - - - -
15/01:00am 13.2 SE 13 15 1024.7 - 0.2 - - - - - - -
15/12:30am 13.1 SE 13 15 1024.7 - 0.2 - - - - - - -
15/12:00am 13.0 SE 13 16 1024.8 - 0.2 - - - - - - -
 
Date/Time
CDT
Temp
°C
Wind Pressure Rain since
9am
mm
Weather Cloud Vis
km
Sea
Height
m
Swell
Dir  Spd
kts
Gust
kts
hPa Trend Height
m
Period
s
Dir
14/11:30pm 13.1 SE 13 16 1024.6 - 0.2 - - - - - - -
14/11:00pm 13.1 SE 13 16 1024.8 - 0.2 - - - - - - -
14/10:30pm 13.2 SE 14 16 1024.9 - 0.2 - - - - - - -
14/10:00pm 13.2 SE 13 17 1024.9 - 0.2 - - - - - - -
14/09:30pm 13.3 SSE 14 17 1025.0 - 0.2 - - - - - - -
14/09:00pm 13.3 SE 13 16 1025.0 - 0.2 - - - - - - -
14/08:30pm 13.3 SSE 13 16 1024.9 - 0.2 - - - - - - -
14/08:00pm 13.4 SSE 12 16 1024.9 - 0.2 - - - - - - -
14/07:30pm 13.5 SSE 12 15 1024.9 - 0.2 - - - - - - -
14/07:00pm 13.7 SSE 12 16 1024.6 - 0.2 - - - - - - -
14/06:30pm 13.9 SSE 11 14 1024.7 - 0.2 - - - - - - -
14/06:00pm 14.1 SSE 10 13 1024.3 - 0.2 - - - - - - -
14/05:30pm 14.3 SSE 10 14 1024.2 - 0.2 - - - - - - -
14/05:00pm 14.8 SSE 9 11 1024.3 - 0.2 - - - - - - -

Other Formats:

Comma delimited format used in spreadsheet applications
http://www.bom.gov.au/fwo/IDS60701/IDS60701.94822.axf

JavaScript Object Notation format (JSON) in row-major order
http://www.bom.gov.au/fwo/IDS60701/IDS60701.94822.json